createdAt,value
2022-11-13T00:04:58.338Z,85.32
2022-11-13T00:16:58.791Z,86.60
2022-11-13T00:28:59.210Z,86.93
2022-11-13T00:40:59.744Z,86.38
2022-11-13T00:53:00.175Z,88.37
2022-11-13T01:05:00.611Z,86.97
2022-11-13T01:17:01.060Z,86.69
2022-11-13T01:29:01.502Z,87.21
2022-11-13T01:41:02.006Z,87.02
2022-11-13T01:53:02.413Z,86.36
2022-11-13T02:05:02.855Z,86.99
2022-11-13T02:17:03.301Z,85.49
2022-11-13T02:29:03.797Z,86.69
2022-11-13T02:41:04.346Z,86.92
2022-11-13T02:53:04.667Z,85.69
2022-11-13T03:05:12.010Z,85.17
2022-11-13T03:17:05.638Z,85.88
2022-11-13T03:29:06.055Z,86.12
2022-11-13T03:41:06.468Z,86.73
2022-11-13T03:53:06.952Z,85.56
2022-11-13T04:05:07.416Z,86.51
2022-11-13T04:17:07.839Z,86.22
2022-11-13T04:29:08.293Z,85.90
2022-11-13T04:41:08.711Z,87.21
2022-11-13T04:53:09.219Z,86.42
2022-11-13T05:05:09.628Z,86.75
2022-11-13T05:17:10.118Z,87.78
2022-11-13T05:29:10.565Z,86.56
2022-11-13T05:41:11.031Z,88.14
2022-11-13T05:53:11.450Z,90.00
2022-11-13T06:05:11.915Z,88.94
2022-11-13T06:17:12.344Z,89.35
2022-11-13T06:29:12.822Z,88.96
2022-11-13T06:41:13.269Z,87.87
2022-11-13T06:53:13.704Z,87.40
2022-11-13T07:05:14.158Z,89.10
2022-11-13T07:17:14.598Z,89.92
2022-11-13T07:29:15.066Z,89.73
2022-11-13T07:41:15.530Z,90.30
2022-11-13T07:53:15.949Z,90.90
2022-11-13T08:05:16.461Z,92.84
2022-11-13T08:17:16.852Z,92.40
2022-11-13T08:29:17.320Z,91.81
2022-11-13T08:41:17.797Z,91.57
2022-11-13T09:10:48.912Z,83.12
2022-11-13T09:22:49.334Z,74.88
2022-11-13T09:34:49.824Z,67.54
2022-11-13T09:46:50.267Z,66.01
2022-11-13T09:58:50.750Z,65.28
2022-11-13T10:10:55.449Z,65.07
2022-11-13T10:22:51.620Z,62.20
2022-11-13T10:34:52.075Z,64.90
2022-11-13T10:46:52.563Z,63.31
2022-11-13T10:58:53.002Z,63.49
2022-11-13T11:10:53.432Z,60.28
2022-11-13T11:22:53.867Z,60.97
2022-11-13T11:34:58.996Z,60.91
2022-11-13T11:46:54.818Z,58.56
2022-11-13T11:58:55.258Z,59.71
2022-11-13T12:10:55.704Z,58.46
2022-11-13T12:22:56.206Z,57.32
2022-11-13T12:34:56.630Z,59.50
2022-11-13T12:46:57.098Z,59.47
2022-11-13T12:59:23.752Z,59.29
2022-11-13T13:10:58.011Z,61.37
2022-11-13T13:22:58.452Z,61.49
2022-11-13T13:34:58.914Z,64.63
2022-11-13T13:46:59.360Z,65.75
2022-11-13T13:58:59.843Z,66.63
2022-11-13T14:11:00.285Z,67.93
2022-11-13T14:23:00.747Z,73.65
2022-11-13T14:35:01.188Z,74.87
2022-11-13T14:47:01.661Z,77.66
2022-11-13T14:59:02.098Z,77.94
2022-11-13T15:11:02.557Z,78.66
2022-11-13T15:23:03.001Z,80.95
2022-11-13T15:35:03.479Z,82.67
2022-11-13T15:47:03.916Z,84.28
2022-11-13T15:59:04.367Z,82.22
2022-11-13T16:11:04.888Z,82.36
2022-11-13T16:23:05.293Z,82.80
2022-11-13T16:35:05.707Z,88.08
2022-11-13T16:47:06.167Z,87.49
2022-11-13T16:59:06.591Z,88.26
2022-11-13T17:11:07.104Z,86.65
2022-11-13T17:23:07.655Z,90.30
2022-11-13T17:35:08.170Z,85.99
2022-11-13T17:59:09.175Z,87.86
2022-11-13T18:11:09.472Z,88.99
2022-11-13T18:23:09.779Z,88.38
2022-11-13T18:35:10.215Z,87.54
2022-11-13T18:47:10.724Z,87.18
2022-11-13T18:59:11.168Z,87.65
2022-11-13T19:11:11.615Z,87.63
2022-11-13T19:23:12.069Z,88.10
2022-11-13T19:35:12.517Z,88.25
2022-11-13T19:47:12.983Z,87.95
2022-11-13T19:59:13.388Z,88.25
2022-11-13T20:11:13.875Z,88.26
2022-11-13T20:23:14.313Z,87.64
2022-11-13T20:35:14.778Z,86.45
2022-11-13T20:47:15.189Z,88.54
2022-11-13T20:59:15.663Z,89.06
2022-11-13T21:11:16.132Z,87.98
2022-11-13T21:23:16.578Z,89.14
2022-11-13T21:35:22.342Z,91.01
2022-11-13T21:47:17.443Z,91.14
2022-11-13T21:59:17.955Z,87.57
2022-11-13T22:11:18.384Z,87.54
2022-11-13T22:23:18.831Z,89.95
2022-11-13T22:35:19.280Z,89.55
2022-11-13T22:47:19.754Z,89.81
2022-11-13T22:59:20.135Z,89.88
2022-11-13T23:11:20.628Z,90.32
2022-11-13T23:23:21.087Z,90.33
2022-11-13T23:35:21.561Z,90.80
2022-11-13T23:47:21.993Z,89.27
2022-11-13T23:59:22.457Z,89.33
